Time;durP1;ratioP1;P1;durP2;ratioP2;P2;SDS_P1;SDS_P2;PMS_P1;PMS_P2;Temp;Humidity;BMP_temperature;BMP_pressure;BME280_temperature;BME280_humidity;BME280_pressure;Samples;Min_cycle;Max_cycle;Signal;HPM_P1;HPM_P2
2021/05/13 00:01:21;;;;;;;7.95;5.90;;;;;;;14.71;72.98;97391.01;257694;1103;27237;-69
2021/05/13 00:22:05;;;;;;;;;;;;;;;;;;;;;
2021/05/13 00:35:52;;;;;;;7.40;6.10;;;;;;;14.71;72.77;97374.84;258240;1103;22867;-69
2021/05/13 00:49:11;;;;;;;;;;;;;;;;;;;;;
2021/05/13 01:09:23;;;;;;;;;;;;;;;;;;;;;
2021/05/13 01:23:31;;;;;;;8.05;5.85;;;;;;;14.48;73.41;97345.80;258991;1111;22938;-70
2021/05/13 01:30:18;;;;;;;6.63;5.83;;;;;;;14.51;73.68;97344.33;257560;1111;22917;-69
2021/05/13 01:44:23;;;;;;;7.07;6.23;;;;;;;14.53;74.00;97339.35;257673;1105;24461;-69
2021/05/13 01:51:21;;;;;;;9.43;6.67;;;;;;;14.46;73.89;97345.34;258028;1111;23051;-70
2021/05/13 02:12:05;;;;;;;7.95;6.55;;;;;;;14.30;74.35;97309.58;258173;1103;24458;-69
2021/05/13 02:18:44;;;;;;;;;;;;;;;;;;;;;
2021/05/13 02:25:17;;;;;;;;;;;;;;;;;;;;;
2021/05/13 02:52:35;;;;;;;;;;;;;;;;;;;;;
2021/05/13 03:07:12;;;;;;;8.90;8.00;;;;;;;14.55;75.61;97242.80;256905;1114;22802;-69
2021/05/13 03:14:16;;;;;;;9.05;8.15;;;;;;;14.54;75.87;97244.69;257067;1103;22996;-69
2021/05/13 03:41:59;;;;;;;;;;;;;;;;;;;;;
2021/05/13 03:48:24;;;;;;;;;;;;;;;;;;;;;
2021/05/13 03:55:26;;;;;;;;;;;;;;;;;;;;;
2021/05/13 04:15:48;;;;;;;12.43;11.13;;;;;;;15.01;76.13;97194.48;259489;1103;26270;-69
2021/05/13 04:22:16;;;;;;;;;;;;;;;;;;;;;
2021/05/13 04:29:30;;;;;;;20.43;16.03;;;;;;;15.15;76.04;97180.48;257929;1103;22980;-69
2021/05/13 04:35:50;;;;;;;;;;;;;;;;;;;;;
2021/05/13 04:42:13;;;;;;;19.90;15.27;;;;;;;15.27;76.03;97174.13;258487;1106;23081;-70
2021/05/13 04:55:07;;;;;;;16.80;15.00;;;;;;;15.41;75.86;97162.81;259465;1110;22877;-70
2021/05/13 05:00:36;;;;;;;20.15;15.65;;;;;;;15.39;75.52;97162.41;259387;1110;23431;-69
2021/05/13 05:06:49;;;;;;;18.65;15.35;;;;;;;15.45;75.69;97154.80;257932;1111;22788;-70
2021/05/13 05:18:46;;;;;;;21.90;17.60;;;;;;;15.53;75.56;97151.08;258202;1110;22814;-69
2021/05/13 05:24:24;;;;;;;31.37;17.93;;;;;;;15.57;75.35;97151.88;259457;1110;22979;-70
2021/05/13 05:30:44;;;;;;;17.78;15.78;;;;;;;15.65;75.40;97147.39;259431;1111;22954;-69
2021/05/13 05:36:42;;;;;;;20.40;17.65;;;;;;;15.77;75.22;97141.81;259393;1111;22809;-70
2021/05/13 05:42:47;;;;;;;22.35;16.15;;;;;;;15.87;75.25;97138.51;258001;1103;22792;-70
2021/05/13 05:55:39;;;;;;;;;;;;;;;;;;;;;
2021/05/13 06:01:53;;;;;;;;;;;;;;;;;;;;;
2021/05/13 06:08:08;;;;;;;20.83;16.80;;;;;;;16.57;74.03;97133.66;257118;1110;23078;-69
2021/05/13 06:13:46;;;;;;;19.40;17.30;;;;;;;16.61;73.42;97133.71;258599;1103;22783;-69
2021/05/13 06:19:21;;;;;;;19.65;16.50;;;;;;;16.61;73.05;97139.12;258462;1110;22807;-69
2021/05/13 06:24:36;;;;;;;22.15;17.40;;;;;;;16.76;72.88;97131.95;265744;1105;22631;-70
2021/05/13 06:29:55;;;;;;;;;;;;;;;;;;;;;
2021/05/13 06:36:04;;;;;;;18.55;15.55;;;;;;;17.16;72.27;97135.86;257843;1103;26440;-69
2021/05/13 06:42:17;;;;;;;;;;;;;;;;;;;;;
2021/05/13 06:47:43;;;;;;;22.10;19.40;;;;;;;18.30;71.71;97126.30;257969;1111;22793;-70
2021/05/13 06:53:57;;;;;;;21.55;19.30;;;;;;;18.70;69.77;97137.30;259441;1110;22786;-71
2021/05/13 06:59:37;;;;;;;20.20;17.27;;;;;;;18.73;68.69;97145.47;259715;1109;23573;-70
2021/05/13 07:04:42;;;;;;;22.80;19.30;;;;;;;18.64;68.21;97140.38;260747;1105;22814;-70
2021/05/13 07:10:17;;;;;;;20.15;17.90;;;;;;;18.73;67.88;97134.62;260730;1106;68329;-70
2021/05/13 07:22:21;;;;;;;;;;;;;;;;;;;;;
2021/05/13 07:35:17;;;;;;;21.40;19.27;;;;;;;19.83;65.32;97124.31;259325;1105;22779;-71
2021/05/13 07:41:06;;;;;;;22.55;20.28;;;;;;;20.02;64.17;97122.36;259515;1110;22789;-70
2021/05/13 07:47:40;;;;;;;23.27;20.87;;;;;;;19.81;63.06;97123.14;258407;1105;22841;-70
2021/05/13 07:53:45;;;;;;;26.13;23.37;;;;;;;19.91;63.34;97111.50;259200;1103;28185;-70
2021/05/13 07:59:12;;;;;;;22.38;20.08;;;;;;;20.22;62.67;97119.98;259518;1111;22813;-71
2021/05/13 08:04:34;;;;;;;26.38;22.53;;;;;;;20.42;62.69;97114.86;259338;1103;22821;-70
2021/05/13 08:10:08;;;;;;;24.17;21.57;;;;;;;20.69;62.13;97114.38;259261;1104;22786;-70
2021/05/13 08:16:44;;;;;;;;;;;;;;;;;;;;;
2021/05/13 08:22:19;;;;;;;24.15;21.68;;;;;;;21.24;60.41;97104.74;259869;1103;25894;-69
2021/05/13 08:43:03;;;;;;;;;;;;;;;;;;;;;
2021/05/13 08:50:05;;;;;;;;;;;;;;;;;;;;;
2021/05/13 08:55:57;;;;;;;24.60;21.98;;;;;;;22.07;55.22;97112.23;258012;1111;22943;-70
2021/05/13 09:01:55;;;;;;;24.38;21.85;;;;;;;22.49;54.90;97093.09;258605;1111;22822;-71
2021/05/13 09:07:35;;;;;;;24.78;21.55;;;;;;;22.81;54.22;97100.09;258026;1110;22810;-69
2021/05/13 09:13:52;;;;;;;24.40;21.90;;;;;;;23.50;53.52;97099.88;258037;1110;22807;-69
2021/05/13 09:20:25;;;;;;;;;;;;;;;;;;;;;
2021/05/13 09:27:13;;;;;;;25.83;23.20;;;;;;;23.73;50.26;97088.94;258010;1111;23276;-69
2021/05/13 09:33:38;;;;;;;26.03;23.50;;;;;;;23.62;50.71;97079.39;259409;1101;23933;-70
2021/05/13 09:40:21;;;;;;;;;;;;;;;;;;;;;
2021/05/13 10:07:13;;;;;;;;;;;;;;;;;;;;;
2021/05/13 10:13:07;;;;;;;28.50;25.33;;;;;;;24.92;48.34;97053.03;259504;1111;23939;-71
2021/05/13 10:19:58;;;;;;;;;;;;;;;;;;;;;
2021/05/13 10:27:10;;;;;;;26.38;23.75;;;;;;;24.55;46.91;97030.34;259943;1106;22829;-70
2021/05/13 10:32:31;;;;;;;28.87;24.23;;;;;;;24.15;47.04;97033.11;260131;1104;22842;-70
2021/05/13 10:38:57;;;;;;;29.80;26.83;;;;;;;24.25;47.25;97026.67;261522;1103;23253;-69
2021/05/13 10:45:18;;;;;;;29.30;26.30;;;;;;;24.73;46.98;97019.79;259856;1111;22810;-70
2021/05/13 10:51:47;;;;;;;27.73;24.07;;;;;;;25.30;47.28;97011.42;259835;1111;22806;-69
2021/05/13 11:18:37;;;;;;;25.55;22.90;;;;;;;24.08;45.50;96995.76;259361;1106;22801;-70
2021/05/13 11:25:21;;;;;;;22.03;19.43;;;;;;;23.95;45.69;96992.87;259552;1106;24319;-70
2021/05/13 11:32:26;;;;;;;26.93;20.07;;;;;;;23.67;45.53;96978.55;259543;1111;22918;-69
2021/05/13 11:39:39;;;;;;;25.88;22.10;;;;;;;24.36;45.55;96982.68;259781;1111;22827;-69
2021/05/13 11:46:39;;;;;;;22.00;19.60;;;;;;;24.92;44.65;96982.59;257620;1111;22781;-69
2021/05/13 11:53:28;;;;;;;23.83;19.63;;;;;;;25.29;44.43;96977.00;258474;1103;26322;-68
2021/05/13 11:59:39;;;;;;;25.78;21.90;;;;;;;25.38;43.71;96984.63;258390;1110;22782;-69
2021/05/13 12:05:59;;;;;;;;;;;;;;;;;;;;;
2021/05/13 12:17:26;;;;;;;21.63;18.55;;;;;;;24.62;44.35;96948.09;258609;1110;22783;-68
2021/05/13 12:22:46;;;;;;;22.47;19.03;;;;;;;24.62;44.23;96950.83;257965;1105;25979;-67
2021/05/13 12:28:39;;;;;;;22.45;19.10;;;;;;;24.72;43.51;96941.61;258233;1103;22855;-68
2021/05/13 12:34:06;;;;;;;26.03;18.60;;;;;;;24.70;43.26;96941.25;258459;1106;23225;-68
2021/05/13 12:39:13;;;;;;;19.78;17.05;;;;;;;25.01;44.28;96942.88;257967;1106;22858;-69
2021/05/13 12:45:16;;;;;;;20.10;17.90;;;;;;;25.25;42.99;96936.00;257778;1105;26018;-69
2021/05/13 12:50:43;;;;;;;21.83;18.00;;;;;;;25.27;42.70;96927.35;258365;1106;22900;-68
2021/05/13 12:56:38;;;;;;;20.88;17.03;;;;;;;25.44;42.39;96928.10;257558;1111;25381;-68
2021/05/13 13:02:34;;;;;;;19.73;16.63;;;;;;;25.57;41.94;96920.67;259620;1103;28873;-69
2021/05/13 13:09:08;;;;;;;;;;;;;;;;;;;;;
2021/05/13 13:15:32;;;;;;;;;;;;;;;;;;;;;
2021/05/13 13:21:48;;;;;;;;;;;;;;;;;;;;;
2021/05/13 13:27:49;;;;;;;14.23;12.75;;;;;;;26.44;38.65;96888.00;257850;1105;22792;-69
2021/05/13 13:33:56;;;;;;;;;;;;;;;;;;;;;
2021/05/13 13:39:58;;;;;;;23.80;18.83;;;;;;;25.14;41.13;96896.38;258681;1110;22932;-69
2021/05/13 13:45:42;;;;;;;;;;;;;;;;;;;;;
2021/05/13 13:51:39;;;;;;;18.43;16.53;;;;;;;23.64;46.05;96919.25;257917;1103;25755;-69
2021/05/13 13:57:54;;;;;;;;;;;;;;;;;;;;;
2021/05/13 14:04:15;;;;;;;19.50;16.40;;;;;;;20.49;53.63;96943.48;257277;1111;22951;-71
2021/05/13 14:11:19;;;;;;;13.13;7.55;;;;;;;18.09;55.55;96946.20;260044;1105;23482;-71
2021/05/13 14:17:51;;;;;;;;;;;;;;;;;;;;;
2021/05/13 14:30:26;;;;;;;9.80;7.50;;;;;;;14.70;67.85;96967.10;259127;1103;27320;-73
2021/05/13 14:37:16;;;;;;;;;;;;;;;;;;;;;
2021/05/13 14:43:17;;;;;;;12.60;8.05;;;;;;;14.14;71.39;96964.91;259235;1106;22887;-72
2021/05/13 14:48:44;;;;;;;14.90;11.20;;;;;;;14.14;72.01;96954.13;259185;1104;22858;-73
2021/05/13 14:54:58;;;;;;;25.97;20.43;;;;;;;14.08;73.50;96924.02;259329;1103;22782;-74
2021/05/13 15:00:31;;;;;;;12.30;8.70;;;;;;;14.04;75.29;96901.64;259297;1104;22805;-75
2021/05/13 15:06:30;;;;;;;11.80;9.80;;;;;;;14.02;74.63;96907.39;259129;1103;22922;-74
2021/05/13 15:12:16;;;;;;;;;;;;;;;;;;;;;
2021/05/13 15:19:05;;;;;;;55.57;36.97;;;;;;;14.53;77.75;96913.64;258957;1103;22793;-74
2021/05/13 15:32:14;;;;;;;;;;;;;;;;;;;;;
2021/05/13 15:38:27;;;;;;;30.10;22.47;;;;;;;14.66;75.98;97030.94;259145;1103;25973;-73
2021/05/13 15:45:00;;;;;;;38.43;26.27;;;;;;;14.35;75.61;97038.04;258984;1103;22806;-74
2021/05/13 15:58:04;;;;;;;32.35;21.35;;;;;;;13.94;76.40;97009.90;259100;1111;22806;-73
2021/05/13 16:04:42;;;;;;;33.75;19.25;;;;;;;13.75;76.83;97008.73;259141;1103;22843;-75
2021/05/13 16:11:36;;;;;;;;;;;;;;;;;;;;;
2021/05/13 16:18:28;;;;;;;;;;;;;;;;;;;;;
2021/05/13 16:25:10;;;;;;;22.20;13.00;;;;;;;13.29;80.72;97022.70;259076;1105;22783;-75
2021/05/13 16:31:53;;;;;;;17.57;13.23;;;;;;;13.33;82.61;97003.94;259088;1103;22786;-75
2021/05/13 16:45:21;;;;;;;30.05;20.60;;;;;;;13.42;81.63;97017.25;259103;1105;25899;-74
2021/05/13 17:11:36;;;;;;;23.00;18.75;;;;;;;13.08;81.38;97046.37;259166;1111;24153;-74
2021/05/13 17:18:02;;;;;;;22.25;17.95;;;;;;;13.09;81.17;97051.39;258936;1106;22899;-73
2021/05/13 17:50:46;;;;;;;17.00;15.20;;;;;;;13.16;80.66;97032.77;259123;1111;24442;-74
2021/05/13 17:57:15;;;;;;;21.50;15.60;;;;;;;13.20;80.38;97042.83;259095;1106;23474;-73
2021/05/13 18:10:24;;;;;;;15.03;12.40;;;;;;;12.97;80.61;97054.95;259022;1111;22951;-74
2021/05/13 18:16:01;;;;;;;;;;;;;;;;;;;;;
2021/05/13 18:22:27;;;;;;;19.30;15.70;;;;;;;12.60;80.03;97073.95;259309;1106;26302;-74
2021/05/13 18:28:24;;;;;;;21.70;17.10;;;;;;;12.41;80.01;97071.92;258905;1111;22910;-74
2021/05/13 18:34:48;;;;;;;25.63;19.10;;;;;;;12.28;80.98;97071.19;259145;1111;22810;-72
2021/05/13 18:41:15;;;;;;;33.25;22.10;;;;;;;12.22;81.53;97093.23;258965;1105;22857;-73
2021/05/13 18:48:01;;;;;;;37.50;23.80;;;;;;;12.20;82.56;97093.58;258800;1111;22802;-74
2021/05/13 19:01:41;;;;;;;38.05;23.90;;;;;;;12.21;83.33;97105.09;258860;1111;23016;-73
2021/05/13 19:08:23;;;;;;;;;;;;;;;;;;;;;
2021/05/13 19:22:27;;;;;;;32.50;21.27;;;;;;;12.40;84.45;97120.60;259086;1103;22813;-74
2021/05/13 19:29:21;;;;;;;;;;;;;;;;;;;;;
2021/05/13 19:36:27;;;;;;;36.37;24.97;;;;;;;12.52;84.77;97117.88;257998;1110;22804;-74
2021/05/13 19:49:17;;;;;;;50.30;28.70;;;;;;;12.69;84.52;97122.17;258137;1106;23062;-73
2021/05/13 20:17:18;;;;;;;;;;;;;;;;;;;;;
2021/05/13 20:24:08;;;;;;;40.07;26.57;;;;;;;12.56;84.41;97128.70;258795;1111;22798;-74
2021/05/13 20:30:37;;;;;;;;;;;;;;;;;;;;;
2021/05/13 20:37:01;;;;;;;35.30;22.60;;;;;;;12.44;84.44;97141.05;259179;1111;22867;-74
2021/05/13 20:58:24;;;;;;;42.87;24.70;;;;;;;12.79;84.41;97158.52;258985;1106;22962;-73
2021/05/13 21:33:14;;;;;;;41.05;24.00;;;;;;;12.91;84.18;97144.23;259035;1111;22793;-73
2021/05/13 22:00:56;;;;;;;52.55;28.00;;;;;;;12.92;84.16;97145.81;259156;1111;22829;-74
2021/05/13 22:35:57;;;;;;;52.70;27.67;;;;;;;12.69;84.00;97162.48;259016;1106;26413;-76
2021/05/13 22:56:27;;;;;;;;;;;;;;;;;;;;;
2021/05/13 23:03:39;;;;;;;44.35;21.15;;;;;;;12.57;83.98;97178.63;258774;1111;22813;-73
2021/05/13 23:10:36;;;;;;;47.80;22.95;;;;;;;12.48;83.70;97176.08;259084;1111;22796;-72
2021/05/13 23:24:44;;;;;;;73.60;27.75;;;;;;;12.53;84.50;97188.48;258803;1106;24448;-72
2021/05/13 23:31:48;;;;;;;61.65;26.50;;;;;;;12.55;84.02;97188.91;259169;1106;22851;-74
2021/05/13 23:45:34;;;;;;;55.03;23.90;;;;;;;12.48;84.09;97195.66;258706;1105;25912;-73
